Time;durP1;ratioP1;P1;durP2;ratioP2;P2;SDS_P1;SDS_P2;PMS_P1;PMS_P2;Temp;Humidity;BMP_temperature;BMP_pressure;BME280_temperature;BME280_humidity;BME280_pressure;Samples;Min_cycle;Max_cycle;Signal;HPM_P1;HPM_P2
2023/01/01 00:03:08;;;;;;;256.73;88.00;;;;;8.20;96658.00;;;;8349771;28;20223;-79
2023/01/01 00:07:14;;;;;;;234.60;88.53;;;;;8.20;96664.00;;;;8345022;28;20823;-78
2023/01/01 00:11:17;;;;;;;257.85;92.70;;;;;8.10;96659.00;;;;8340246;28;20205;-79
2023/01/01 00:15:20;;;;;;;217.35;80.28;;;;;8.10;96658.00;;;;8348875;28;20287;-78
2023/01/01 00:19:26;;;;;;;210.93;74.95;;;;;8.00;96663.00;;;;8346822;28;20228;-77
2023/01/01 00:23:31;;;;;;;217.73;79.43;;;;;7.90;96663.00;;;;8344060;28;20201;-77
2023/01/01 00:27:38;;;;;;;209.77;74.32;;;;;7.80;96658.00;;;;8352415;28;20224;-77
2023/01/01 00:31:42;;;;;;;219.23;74.87;;;;;7.70;96667.00;;;;8351451;28;20274;-78
2023/01/01 00:35:48;;;;;;;196.47;70.43;;;;;7.60;96656.00;;;;8354269;28;20921;-79
2023/01/01 00:39:52;;;;;;;216.23;77.90;;;;;7.50;96658.00;;;;8350394;28;20224;-79
2023/01/01 00:43:55;;;;;;;208.83;70.17;;;;;7.50;96658.00;;;;8352673;28;20258;-79
2023/01/01 00:48:06;;;;;;;188.77;63.83;;;;;7.40;96655.00;;;;8349667;28;20201;-78
2023/01/01 00:52:09;;;;;;;189.73;65.63;;;;;7.30;96659.00;;;;8352692;28;20598;-78
2023/01/01 00:56:14;;;;;;;187.93;62.17;;;;;7.20;96655.00;;;;8345844;28;20213;-79
2023/01/01 01:00:20;;;;;;;219.57;67.63;;;;;7.10;96655.00;;;;8353682;28;20251;-80
2023/01/01 01:04:23;;;;;;;197.10;66.67;;;;;7.00;96660.00;;;;8347490;28;20216;-80
2023/01/01 01:08:27;;;;;;;221.47;68.17;;;;;7.00;96654.00;;;;8344585;28;20196;-80
2023/01/01 01:12:35;;;;;;;219.97;70.00;;;;;6.90;96658.00;;;;8348581;28;20201;-81
2023/01/01 01:16:39;;;;;;;209.10;69.93;;;;;6.90;96664.00;;;;8351951;28;20465;-79
2023/01/01 01:20:53;;;;;;;228.97;74.00;;;;;6.90;96670.00;;;;8349909;28;20729;-79
2023/01/01 01:24:56;;;;;;;252.20;77.27;;;;;6.80;96672.00;;;;8355826;28;20197;-79
2023/01/01 01:29:05;;;;;;;220.17;71.27;;;;;6.90;96678.00;;;;8351726;28;20201;-79
2023/01/01 01:33:08;;;;;;;202.93;64.00;;;;;6.90;96690.00;;;;8341733;28;20189;-78
2023/01/01 01:37:11;;;;;;;222.87;69.07;;;;;6.90;96681.00;;;;8354165;28;20201;-80
2023/01/01 01:41:18;;;;;;;185.60;57.93;;;;;7.00;96693.00;;;;8353194;28;20759;-80
2023/01/01 01:45:32;;;;;;;162.97;54.30;;;;;7.00;96695.00;;;;8358213;28;20207;-79
2023/01/01 01:49:37;;;;;;;187.47;56.57;;;;;6.90;96687.00;;;;8338851;28;20204;-79
2023/01/01 01:53:45;;;;;;;152.53;48.73;;;;;6.90;96685.00;;;;8352530;28;20678;-79
2023/01/01 01:57:49;;;;;;;155.80;50.03;;;;;6.80;96683.00;;;;8358947;28;20200;-79
2023/01/01 02:01:54;;;;;;;144.20;47.33;;;;;6.80;96678.00;;;;8351909;28;20207;-78
2023/01/01 02:05:58;;;;;;;128.90;42.77;;;;;6.80;96688.00;;;;8352392;28;20200;-79
2023/01/01 02:10:02;;;;;;;114.73;37.57;;;;;6.90;96685.00;;;;8343851;28;20197;-79
2023/01/01 02:14:06;;;;;;;112.97;39.23;;;;;6.90;96680.00;;;;8350315;28;20220;-79
2023/01/01 02:18:16;;;;;;;118.10;38.70;;;;;6.90;96678.00;;;;8340290;28;20228;-78
2023/01/01 02:22:32;;;;;;;110.03;38.93;;;;;6.90;96684.00;;;;8338739;28;20197;-77
2023/01/01 02:26:59;;;;;;;122.73;38.17;;;;;7.10;96672.00;;;;8348344;28;20286;-77
2023/01/01 02:31:22;;;;;;;104.37;34.17;;;;;7.10;96667.00;;;;8342738;28;21779;-78
2023/01/01 02:35:34;;;;;;;108.80;34.63;;;;;7.20;96660.00;;;;8338690;28;20203;-80
2023/01/01 02:39:47;;;;;;;131.57;40.57;;;;;7.30;96662.00;;;;8337010;28;20228;-80
2023/01/01 02:43:54;;;;;;;131.97;40.00;;;;;7.50;96666.00;;;;8349932;28;20268;-79
2023/01/01 02:48:03;;;;;;;137.80;43.90;;;;;7.70;96670.00;;;;8346551;28;20207;-79
2023/01/01 02:52:13;;;;;;;122.77;40.47;;;;;7.90;96661.00;;;;8344979;28;20201;-78
2023/01/01 02:56:24;;;;;;;107.10;38.93;;;;;8.00;96661.00;;;;8349113;28;20258;-78
2023/01/01 03:04:54;;;;;;;97.60;34.60;;;;;7.90;96670.00;;;;8292722;28;20703;-79
2023/01/01 03:09:10;;;;;;;93.63;32.27;;;;;7.70;96670.00;;;;8310059;28;21032;-79
2023/01/01 03:13:25;;;;;;;96.87;34.53;;;;;7.50;96666.00;;;;8316434;28;20186;-79
2023/01/01 03:17:33;;;;;;;92.30;31.33;;;;;7.40;96667.00;;;;8313124;28;20205;-78
2023/01/01 03:21:45;;;;;;;101.73;34.33;;;;;7.20;96676.00;;;;8316671;28;20278;-78
2023/01/01 03:25:54;;;;;;;102.07;36.13;;;;;7.20;96672.00;;;;8312529;28;20205;-80
2023/01/01 03:30:10;;;;;;;116.37;39.63;;;;;7.10;96671.00;;;;8314348;28;20201;-79
2023/01/01 03:34:18;;;;;;;106.80;37.70;;;;;7.20;96669.00;;;;8310263;28;20233;-79
2023/01/01 03:38:31;;;;;;;112.50;38.40;;;;;7.20;96665.00;;;;8312174;28;20228;-78
2023/01/01 03:42:40;;;;;;;108.07;38.13;;;;;7.20;96664.00;;;;8318391;28;20235;-77
2023/01/01 03:46:43;;;;;;;107.80;35.50;;;;;7.20;96669.00;;;;8319646;28;20189;-80
2023/01/01 03:50:56;;;;;;;101.93;37.03;;;;;7.10;96664.00;;;;8320073;28;20198;-79
2023/01/01 03:55:07;;;;;;;106.50;34.43;;;;;7.20;96676.00;;;;8318623;28;20198;-79
2023/01/01 03:59:20;;;;;;;103.43;36.20;;;;;7.10;96687.00;;;;8318871;28;20217;-79
2023/01/01 04:03:27;;;;;;;103.00;33.30;;;;;7.20;96687.00;;;;8295579;28;20280;-79
2023/01/01 04:07:31;;;;;;;98.30;34.77;;;;;7.40;96688.00;;;;8288186;28;20829;-79
2023/01/01 04:16:06;;;;;;;94.20;33.27;;;;;7.90;96686.00;;;;8281967;28;20199;-78
2023/01/01 04:20:10;;;;;;;94.70;33.47;;;;;8.10;96690.00;;;;8287216;28;20244;-79
2023/01/01 04:24:17;;;;;;;86.00;32.45;;;;;8.20;96694.00;;;;8285472;28;20206;-79
2023/01/01 04:28:24;;;;;;;84.78;31.05;;;;;8.20;96693.00;;;;8287309;28;20198;-79
2023/01/01 04:32:27;;;;;;;73.43;29.90;;;;;8.20;96692.00;;;;8287630;28;20724;-78
2023/01/01 04:36:30;;;;;;;63.70;27.63;;;;;8.10;96704.00;;;;8286088;28;20570;-79
2023/01/01 04:40:36;;;;;;;74.70;29.05;;;;;7.80;96701.00;;;;8286111;28;20232;-79
2023/01/01 04:44:43;;;;;;;75.27;30.70;;;;;7.60;96703.00;;;;8287509;28;20211;-79
2023/01/01 04:48:47;;;;;;;81.40;31.30;;;;;7.60;96708.00;;;;8283991;28;20242;-79
2023/01/01 04:52:50;;;;;;;79.73;30.07;;;;;7.60;96701.00;;;;8285956;28;20808;-79
2023/01/01 04:56:53;;;;;;;82.60;31.50;;;;;7.60;96696.00;;;;8284383;28;20540;-79
2023/01/01 05:01:00;;;;;;;77.17;30.77;;;;;7.50;96690.00;;;;8281452;28;21101;-79
2023/01/01 05:05:03;;;;;;;80.97;30.87;;;;;7.50;96701.00;;;;8280290;28;20201;-80
2023/01/01 05:09:12;;;;;;;84.70;31.33;;;;;7.50;96722.00;;;;8283044;28;20632;-80
2023/01/01 05:13:19;;;;;;;79.65;31.33;;;;;7.40;96729.00;;;;8281340;28;20249;-80
2023/01/01 05:17:26;;;;;;;76.50;30.10;;;;;7.30;96742.00;;;;8278210;28;20206;-80
2023/01/01 05:21:32;;;;;;;88.10;32.77;;;;;7.20;96760.00;;;;8276384;28;20317;-80
2023/01/01 05:25:35;;;;;;;89.57;31.17;;;;;7.10;96750.00;;;;8282191;28;20202;-79
2023/01/01 05:29:43;;;;;;;83.73;30.97;;;;;6.90;96759.00;;;;8272095;28;20648;-79
2023/01/01 05:33:54;;;;;;;83.97;33.07;;;;;6.70;96755.00;;;;8280128;28;20366;-78
2023/01/01 05:38:02;;;;;;;96.70;35.33;;;;;6.60;96757.00;;;;8279656;28;20297;-78
2023/01/01 05:42:05;;;;;;;91.17;33.43;;;;;6.40;96754.00;;;;8279653;28;20279;-78
2023/01/01 05:46:14;;;;;;;88.23;32.93;;;;;6.30;96764.00;;;;8283787;28;20248;-78
2023/01/01 05:50:19;;;;;;;103.07;37.53;;;;;6.20;96764.00;;;;8282419;28;20285;-78
2023/01/01 05:54:22;;;;;;;106.50;38.27;;;;;6.20;96758.00;;;;8283875;28;20194;-78
2023/01/01 05:58:26;;;;;;;110.17;38.00;;;;;6.30;96763.00;;;;8283664;28;20198;-78
2023/01/01 06:02:31;;;;;;;107.80;36.83;;;;;6.30;96769.00;;;;8282683;28;20229;-78
2023/01/01 06:06:41;;;;;;;119.67;38.93;;;;;6.40;96761.00;;;;8281075;28;20241;-78
2023/01/01 06:10:45;;;;;;;123.00;42.10;;;;;6.50;96762.00;;;;8282758;28;20249;-79
2023/01/01 06:14:52;;;;;;;126.77;41.37;;;;;6.70;96768.00;;;;8276863;28;20209;-78
2023/01/01 06:18:58;;;;;;;109.03;38.80;;;;;6.70;96763.00;;;;8279201;28;20202;-79
2023/01/01 06:23:05;;;;;;;103.40;40.50;;;;;6.60;96761.00;;;;8281323;28;20234;-78
2023/01/01 06:27:08;;;;;;;96.07;36.70;;;;;6.40;96772.00;;;;8278306;28;20205;-78
2023/01/01 06:31:14;;;;;;;99.77;35.10;;;;;6.30;96777.00;;;;8281637;28;20729;-78
2023/01/01 06:35:17;;;;;;;93.37;34.30;;;;;6.10;96777.00;;;;8283809;28;20197;-78
2023/01/01 06:39:22;;;;;;;101.03;35.20;;;;;6.00;96789.00;;;;8279102;28;20210;-78
2023/01/01 06:43:25;;;;;;;105.43;35.20;;;;;6.00;96792.00;;;;8285354;28;20190;-77
2023/01/01 06:47:29;;;;;;;97.40;34.90;;;;;5.90;96795.00;;;;8278342;28;20636;-77
2023/01/01 06:51:38;;;;;;;96.47;35.33;;;;;5.80;96800.00;;;;8279469;28;20202;-78
2023/01/01 06:55:48;;;;;;;107.40;35.83;;;;;5.80;96803.00;;;;8279262;28;20253;-78
2023/01/01 06:59:58;;;;;;;102.23;37.20;;;;;5.80;96803.00;;;;8281004;28;20257;-78
2023/01/01 07:04:03;;;;;;;108.53;36.70;;;;;5.80;96797.00;;;;8282462;28;20296;-78
2023/01/01 07:08:09;;;;;;;101.03;35.03;;;;;5.90;96800.00;;;;8278141;28;20198;-79
2023/01/01 07:12:14;;;;;;;103.33;35.00;;;;;5.90;96804.00;;;;8283186;28;20288;-79
2023/01/01 07:16:17;;;;;;;126.73;40.00;;;;;6.00;96806.00;;;;8290018;28;20210;-79
2023/01/01 07:20:25;;;;;;;115.77;38.27;;;;;6.10;96825.00;;;;8289009;28;20229;-79
2023/01/01 07:24:28;;;;;;;117.73;40.40;;;;;6.20;96823.00;;;;8286282;28;20210;-79
2023/01/01 07:28:34;;;;;;;116.57;39.40;;;;;6.30;96832.00;;;;8287888;28;20260;-79
2023/01/01 07:32:38;;;;;;;104.57;37.93;;;;;6.40;96836.00;;;;8288284;28;20281;-76
2023/01/01 07:36:43;;;;;;;120.40;42.03;;;;;6.60;96849.00;;;;8282365;28;20685;-75
2023/01/01 07:40:50;;;;;;;113.10;40.07;;;;;6.80;96858.00;;;;8286836;28;20230;-75
2023/01/01 07:44:55;;;;;;;111.97;40.77;;;;;7.00;96858.00;;;;8287583;28;20207;-75
2023/01/01 07:49:01;;;;;;;104.70;37.17;;;;;7.10;96862.00;;;;8287942;28;20254;-76
2023/01/01 07:53:04;;;;;;;99.17;38.23;;;;;7.20;96867.00;;;;8287961;28;20987;-75
2023/01/01 07:57:08;;;;;;;97.80;38.03;;;;;7.30;96876.00;;;;8279770;28;20698;-75
2023/01/01 08:01:21;;;;;;;99.47;37.10;;;;;7.40;96880.00;;;;8285881;28;20301;-76
2023/01/01 08:05:24;;;;;;;104.43;39.47;;;;;7.40;96884.00;;;;8287013;28;20198;-75
2023/01/01 08:09:29;;;;;;;108.37;39.03;;;;;7.50;96883.00;;;;8288958;28;20198;-76
2023/01/01 08:13:36;;;;;;;96.77;38.17;;;;;7.60;96881.00;;;;8286356;28;20229;-75
2023/01/01 08:17:41;;;;;;;105.63;39.73;;;;;7.60;96887.00;;;;8281486;28;20711;-75
2023/01/01 08:21:49;;;;;;;95.57;38.63;;;;;7.70;96892.00;;;;8278034;28;20265;-75
2023/01/01 08:25:52;;;;;;;105.20;41.00;;;;;7.70;96898.00;;;;8284636;28;20223;-75
2023/01/01 08:29:56;;;;;;;104.40;40.57;;;;;7.80;96905.00;;;;8285260;28;20272;-75
2023/01/01 08:34:01;;;;;;;110.40;42.07;;;;;7.80;96909.00;;;;8286360;28;20199;-75
2023/01/01 08:38:06;;;;;;;108.00;43.97;;;;;7.90;96904.00;;;;8281314;28;20201;-74
2023/01/01 08:42:09;;;;;;;109.90;44.80;;;;;8.00;96890.00;;;;8295555;28;20965;-79
2023/01/01 08:46:14;;;;;;;123.10;47.37;;;;;8.10;96872.00;;;;8285579;28;20610;-79
2023/01/01 08:50:19;;;;;;;115.17;49.47;;;;;8.30;96882.00;;;;8284282;28;20584;-79
2023/01/01 08:54:24;;;;;;;118.15;47.75;;;;;8.40;96887.00;;;;8281950;28;20256;-79
2023/01/01 08:58:27;;;;;;;118.83;49.13;;;;;8.60;96898.00;;;;8281455;28;20281;-79
2023/01/01 09:02:31;;;;;;;109.75;45.33;;;;;8.70;96892.00;;;;8282645;28;20262;-79
2023/01/01 09:06:36;;;;;;;106.22;44.97;;;;;8.90;96902.00;;;;8281586;28;20210;-79
2023/01/01 09:10:42;;;;;;;104.57;46.85;;;;;9.00;96901.00;;;;8287132;28;20256;-79
2023/01/01 09:14:48;;;;;;;107.43;45.95;;;;;9.20;96918.00;;;;8277844;28;20202;-80
2023/01/01 09:18:52;;;;;;;99.47;43.90;;;;;9.30;96922.00;;;;8284223;28;20209;-80
2023/01/01 09:22:57;;;;;;;94.40;44.28;;;;;9.40;96923.00;;;;8281642;28;20229;-80
2023/01/01 09:27:07;;;;;;;93.30;42.75;;;;;9.60;96929.00;;;;8281696;28;20221;-80
2023/01/01 09:31:11;;;;;;;94.32;43.90;;;;;9.70;96940.00;;;;8283783;28;20198;-80
2023/01/01 09:35:14;;;;;;;97.55;43.22;;;;;9.90;96935.00;;;;8280831;28;20206;-80
2023/01/01 09:39:19;;;;;;;86.18;38.97;;;;;10.10;96940.00;;;;8281339;28;20277;-80
2023/01/01 09:43:36;;;;;;;78.53;38.20;;;;;10.30;96935.00;;;;8281222;28;20694;-80
2023/01/01 09:47:41;;;;;;;80.53;37.25;;;;;10.50;96932.00;;;;8283397;28;20424;-80
2023/01/01 09:51:51;;;;;;;84.05;37.00;;;;;10.70;96926.00;;;;8282433;28;20321;-80
2023/01/01 09:56:02;;;;;;;72.57;35.58;;;;;10.90;96928.00;;;;8281455;28;20198;-80
2023/01/01 10:00:15;;;;;;;70.80;34.15;;;;;11.10;96929.00;;;;8283786;28;20199;-80
2023/01/01 10:04:35;;;;;;;73.07;35.30;;;;;11.20;96932.00;;;;8281726;28;20238;-79
2023/01/01 10:08:59;;;;;;;71.50;34.00;;;;;11.40;96919.00;;;;8281411;28;20603;-79
2023/01/01 10:13:15;;;;;;;69.78;34.00;;;;;11.60;96916.00;;;;8275046;28;20252;-79
2023/01/01 10:17:38;;;;;;;64.10;31.20;;;;;11.90;96911.00;;;;8299951;28;20200;-78
2023/01/01 10:22:11;;;;;;;57.55;28.95;;;;;12.10;96909.00;;;;8297836;28;20670;-78
2023/01/01 10:26:17;;;;;;;51.60;26.35;;;;;12.50;96914.00;;;;8299351;28;20245;-79
2023/01/01 10:30:23;;;;;;;52.65;25.05;;;;;12.70;96910.00;;;;8299043;28;20590;-78
2023/01/01 10:34:33;;;;;;;48.95;25.25;;;;;12.90;96907.00;;;;8299670;28;20205;-78
2023/01/01 10:38:42;;;;;;;42.80;22.40;;;;;13.10;96907.00;;;;8297874;28;20579;-77
2023/01/01 10:43:18;;;;;;;47.95;23.92;;;;;13.20;96896.00;;;;8298560;28;20225;-77
2023/01/01 10:48:02;;;;;;;38.28;21.15;;;;;13.40;96890.00;;;;8297963;28;20555;-76
2023/01/01 10:52:15;;;;;;;45.45;22.52;;;;;13.60;96887.00;;;;8299446;28;20631;-77
2023/01/01 10:56:21;;;;;;;41.90;21.73;;;;;13.70;96887.00;;;;8298491;28;20224;-77
2023/01/01 11:00:58;;;;;;;48.22;22.88;;;;;13.80;96879.00;;;;8298432;28;20222;-76
2023/01/01 11:05:14;;;;;;;38.40;20.75;;;;;13.90;96878.00;;;;8298112;28;20206;-77
2023/01/01 11:09:47;;;;;;;42.45;20.83;;;;;14.00;96881.00;;;;8299154;28;20205;-77
2023/01/01 11:14:21;;;;;;;39.65;20.95;;;;;14.10;96883.00;;;;8295873;28;20218;-77
2023/01/01 11:18:42;;;;;;;36.83;19.75;;;;;14.20;96888.00;;;;8298553;28;20202;-76
2023/01/01 11:22:49;;;;;;;43.22;20.13;;;;;14.30;96881.00;;;;8298113;28;20230;-76
2023/01/01 11:27:27;;;;;;;35.22;19.33;;;;;14.40;96878.00;;;;8299375;28;20205;-76
2023/01/01 11:31:37;;;;;;;36.53;19.23;;;;;14.50;96869.00;;;;8298118;28;20233;-76
2023/01/01 11:35:50;;;;;;;32.65;17.67;;;;;14.60;96871.00;;;;8297808;28;20206;-76
2023/01/01 11:39:56;;;;;;;27.65;16.25;;;;;14.80;96870.00;;;;8297966;28;20229;-74
2023/01/01 11:44:35;;;;;;;36.03;17.15;;;;;14.90;96868.00;;;;8298114;28;20245;-74
2023/01/01 11:49:12;;;;;;;30.52;17.15;;;;;15.10;96869.00;;;;8295380;28;20635;-75
2023/01/01 11:53:41;;;;;;;30.10;15.90;;;;;15.30;96867.00;;;;8298683;28;20551;-75
2023/01/01 11:58:27;;;;;;;28.83;16.50;;;;;15.50;96871.00;;;;8299834;28;20194;-75
2023/01/01 12:02:43;;;;;;;35.78;18.33;;;;;15.70;96870.00;;;;8304406;28;20260;-76
2023/01/01 12:06:51;;;;;;;42.85;21.38;;;;;15.70;96876.00;;;;8303766;28;20543;-76
2023/01/01 12:11:27;;;;;;;47.97;26.73;;;;;15.70;96882.00;;;;8303570;28;20205;-76
2023/01/01 12:16:02;;;;;;;37.28;19.95;;;;;15.70;96867.00;;;;8302760;28;20252;-76
2023/01/01 12:20:13;;;;;;;32.88;18.25;;;;;15.90;96875.00;;;;8301974;28;20225;-76
2023/01/01 12:24:20;;;;;;;29.48;15.77;;;;;16.10;96871.00;;;;8303218;28;20226;-76
2023/01/01 12:28:34;;;;;;;27.42;15.35;;;;;16.30;96879.00;;;;8302796;28;20574;-76
2023/01/01 12:33:02;;;;;;;27.48;15.73;;;;;16.40;96865.00;;;;8302240;28;20229;-76
2023/01/01 12:37:20;;;;;;;24.55;14.02;;;;;16.60;96873.00;;;;8303494;28;20202;-75
2023/01/01 12:41:32;;;;;;;24.83;13.63;;;;;16.70;96859.00;;;;8300788;28;20198;-76
2023/01/01 12:46:00;;;;;;;26.27;14.27;;;;;16.80;96852.00;;;;8303168;28;20178;-75
2023/01/01 12:50:14;;;;;;;26.17;15.82;;;;;16.90;96855.00;;;;8301019;28;20627;-76
2023/01/01 12:54:43;;;;;;;55.78;28.92;;;;;16.80;96856.00;;;;8302739;28;20648;-76
2023/01/01 12:59:23;;;;;;;44.55;24.33;;;;;16.70;96854.00;;;;8301434;28;20210;-76
2023/01/01 13:03:30;;;;;;;40.63;21.60;;;;;16.50;96848.00;;;;8301001;28;20233;-76
2023/01/01 13:08:04;;;;;;;34.95;19.42;;;;;16.30;96843.00;;;;8298736;28;20194;-79
2023/01/01 13:12:41;;;;;;;34.13;17.50;;;;;16.20;96832.00;;;;8300084;28;20575;-77
2023/01/01 13:17:18;;;;;;;33.50;19.52;;;;;16.10;96834.00;;;;8298714;28;20206;-77
2023/01/01 13:21:51;;;;;;;33.08;18.63;;;;;16.00;96834.00;;;;8300178;28;20277;-78
2023/01/01 13:26:29;;;;;;;86.25;33.50;;;;;15.90;96841.00;;;;8302061;28;20190;-77
2023/01/01 13:36:07;;;;;;;43.08;22.13;;;;;15.60;96839.00;;;;8301070;28;20543;-77
2023/01/01 13:40:51;;;;;;;39.95;22.95;;;;;15.40;96843.00;;;;8300279;28;20202;-78
2023/01/01 13:45:22;;;;;;;39.17;21.83;;;;;15.30;96846.00;;;;8299936;28;20225;-77
2023/01/01 13:50:14;;;;;;;42.47;21.65;;;;;15.10;96844.00;;;;8299935;28;20547;-77
2023/01/01 13:54:47;;;;;;;37.35;21.08;;;;;15.00;96853.00;;;;8300819;28;20194;-77
2023/01/01 13:59:40;;;;;;;39.15;20.80;;;;;14.80;96851.00;;;;8292113;28;20517;-77
2023/01/01 14:04:07;;;;;;;35.78;19.67;;;;;14.70;96861.00;;;;8292677;28;20226;-77
2023/01/01 14:13:44;;;;;;;39.53;21.10;;;;;14.30;96854.00;;;;8300402;28;20696;-76
2023/01/01 14:18:23;;;;;;;41.83;20.83;;;;;14.20;96864.00;;;;8299110;28;20201;-76
2023/01/01 14:22:54;;;;;;;41.53;20.98;;;;;14.10;96861.00;;;;8299302;28;20643;-76
2023/01/01 14:27:32;;;;;;;44.53;23.20;;;;;14.00;96851.00;;;;8299034;28;20194;-76
2023/01/01 14:32:21;;;;;;;40.67;20.85;;;;;13.80;96863.00;;;;8299295;28;20228;-76
2023/01/01 14:36:53;;;;;;;44.85;23.27;;;;;13.70;96854.00;;;;8229945;28;20254;-76
2023/01/01 14:41:22;;;;;;;41.00;20.95;;;;;13.50;96848.00;;;;8297401;28;20281;-77
2023/01/01 14:45:58;;;;;;;40.80;21.33;;;;;13.30;96861.00;;;;8294834;28;20251;-76
2023/01/01 14:50:36;;;;;;;45.25;23.00;;;;;13.20;96857.00;;;;8294288;28;20224;-76
2023/01/01 14:55:18;;;;;;;44.70;21.98;;;;;13.00;96855.00;;;;8290542;28;20264;-77
2023/01/01 14:59:25;;;;;;;40.85;20.88;;;;;12.90;96852.00;;;;8297539;28;20675;-76
2023/01/01 15:03:57;;;;;;;38.95;20.65;;;;;12.80;96869.00;;;;8295722;28;20230;-77
2023/01/01 15:08:01;;;;;;;53.80;19.65;;;;;12.70;96875.00;;;;8298506;28;20216;-77
2023/01/01 15:12:06;;;;;;;41.22;20.92;;;;;12.60;96872.00;;;;8297514;28;20678;-76
2023/01/01 15:16:47;;;;;;;38.53;19.58;;;;;12.50;96868.00;;;;8298547;28;20619;-76
2023/01/01 15:21:24;;;;;;;44.33;21.40;;;;;12.30;96868.00;;;;8298448;28;20202;-76
2023/01/01 15:25:54;;;;;;;39.80;20.77;;;;;12.10;96861.00;;;;8297965;28;20217;-76
2023/01/01 15:30:34;;;;;;;40.47;21.10;;;;;12.00;96869.00;;;;8294951;28;20201;-78
2023/01/01 15:35:19;;;;;;;45.42;21.33;;;;;11.90;96866.00;;;;8304758;28;20198;-78
2023/01/01 15:39:29;;;;;;;42.25;21.15;;;;;11.70;96859.00;;;;8304084;28;20236;-78
2023/01/01 15:44:07;;;;;;;42.88;21.17;;;;;11.60;96868.00;;;;8304279;28;20630;-77
2023/01/01 15:48:49;;;;;;;43.42;20.33;;;;;11.50;96872.00;;;;8303906;28;20198;-78
2023/01/01 15:53:18;;;;;;;45.45;20.92;;;;;11.40;96860.00;;;;8304495;28;20221;-78
2023/01/01 15:57:55;;;;;;;46.92;22.20;;;;;11.20;96855.00;;;;8304457;28;20198;-78
2023/01/01 16:02:36;;;;;;;41.28;20.25;;;;;11.10;96853.00;;;;8304545;28;20273;-78
2023/01/01 16:07:14;;;;;;;46.65;19.80;;;;;10.80;96861.00;;;;8303913;28;20245;-78
2023/01/01 16:11:39;;;;;;;39.17;19.30;;;;;10.60;96851.00;;;;8303180;28;20602;-78
2023/01/01 16:16:23;;;;;;;42.15;20.40;;;;;10.40;96849.00;;;;8303945;28;20232;-78
2023/01/01 16:20:52;;;;;;;42.50;18.67;;;;;10.10;96849.00;;;;8303817;28;20220;-78
2023/01/01 16:25:28;;;;;;;44.22;19.42;;;;;9.90;96841.00;;;;8302937;28;20229;-78
2023/01/01 16:30:02;;;;;;;41.78;18.70;;;;;9.70;96847.00;;;;8304516;28;20208;-79
2023/01/01 16:34:07;;;;;;;48.45;22.17;;;;;9.70;96850.00;;;;8303217;28;20255;-79
2023/01/01 16:38:41;;;;;;;44.80;19.55;;;;;9.50;96844.00;;;;8302847;28;20194;-80
2023/01/01 16:43:20;;;;;;;41.20;20.13;;;;;9.30;96845.00;;;;8302344;28;20655;-77
2023/01/01 16:47:54;;;;;;;41.90;20.53;;;;;9.10;96852.00;;;;8302726;28;20524;-77
2023/01/01 16:52:29;;;;;;;43.07;20.60;;;;;8.90;96842.00;;;;8302396;28;20198;-78
2023/01/01 16:57:06;;;;;;;64.70;27.20;;;;;8.90;96844.00;;;;8303133;28;20241;-78
2023/01/01 17:01:43;;;;;;;68.77;27.57;;;;;8.80;96836.00;;;;8301507;28;20631;-77
2023/01/01 17:06:16;;;;;;;45.75;20.48;;;;;8.70;96838.00;;;;8302347;28;20234;-77
2023/01/01 17:15:57;;;;;;;55.20;22.97;;;;;8.40;96829.00;;;;8302016;28;20636;-76
2023/01/01 17:20:27;;;;;;;52.83;22.70;;;;;8.20;96830.00;;;;8301134;28;20193;-76
2023/01/01 17:25:10;;;;;;;51.97;23.83;;;;;8.20;96832.00;;;;8300409;28;20275;-77
2023/01/01 17:29:41;;;;;;;62.20;25.63;;;;;8.10;96838.00;;;;8301767;28;20194;-77
2023/01/01 17:34:20;;;;;;;62.63;26.03;;;;;8.10;96840.00;;;;8301839;28;20693;-77
2023/01/01 17:38:59;;;;;;;62.07;24.07;;;;;8.20;96838.00;;;;8301204;28;20277;-77
2023/01/01 17:43:34;;;;;;;60.33;23.80;;;;;8.40;96836.00;;;;8301474;28;20190;-77
2023/01/01 17:48:12;;;;;;;48.70;22.13;;;;;8.60;96833.00;;;;8300188;28;20198;-76
2023/01/01 17:52:46;;;;;;;48.10;20.03;;;;;8.80;96831.00;;;;8300859;28;20543;-77
2023/01/01 17:57:25;;;;;;;42.22;18.27;;;;;8.90;96842.00;;;;8300549;28;20531;-76
2023/01/01 18:01:59;;;;;;;43.50;19.27;;;;;8.90;96839.00;;;;8300634;28;20532;-77
2023/01/01 18:06:33;;;;;;;49.17;20.23;;;;;9.00;96833.00;;;;8299322;28;20222;-76
2023/01/01 18:11:08;;;;;;;44.67;18.77;;;;;9.10;96822.00;;;;8301387;28;20205;-76
2023/01/01 18:15:47;;;;;;;43.20;19.07;;;;;9.10;96820.00;;;;8300009;28;20535;-76
2023/01/01 18:20:21;;;;;;;40.95;18.27;;;;;9.00;96812.00;;;;8300140;28;20631;-76
2023/01/01 18:24:30;;;;;;;42.70;17.20;;;;;8.90;96798.00;;;;8300286;28;20229;-76
2023/01/01 18:29:02;;;;;;;41.40;19.03;;;;;8.80;96802.00;;;;8300535;28;20277;-75
2023/01/01 18:33:06;;;;;;;36.67;16.93;;;;;8.80;96800.00;;;;8299713;28;20531;-78
2023/01/01 18:37:09;;;;;;;41.35;17.67;;;;;8.60;96793.00;;;;8300043;28;20580;-78
2023/01/01 18:41:52;;;;;;;38.47;18.43;;;;;8.60;96802.00;;;;8298948;28;20198;-79
2023/01/01 18:46:22;;;;;;;36.10;17.43;;;;;8.60;96795.00;;;;8299199;28;20222;-79
2023/01/01 18:50:58;;;;;;;37.90;17.77;;;;;8.50;96797.00;;;;8299427;28;20517;-78
2023/01/01 18:55:31;;;;;;;38.20;16.97;;;;;8.50;96791.00;;;;8298639;28;20210;-77
2023/01/01 19:00:15;;;;;;;43.07;19.23;;;;;8.50;96791.00;;;;8298065;28;20288;-78
2023/01/01 19:04:43;;;;;;;40.80;17.60;;;;;8.40;96795.00;;;;8298806;28;20229;-78
2023/01/01 19:09:20;;;;;;;45.00;18.13;;;;;8.30;96792.00;;;;8297521;28;20211;-78
2023/01/01 19:14:05;;;;;;;44.17;17.87;;;;;8.20;96797.00;;;;8297407;28;20208;-77
2023/01/01 19:18:35;;;;;;;39.67;17.20;;;;;8.20;96795.00;;;;8299002;28;20247;-78
2023/01/01 19:23:08;;;;;;;44.17;19.33;;;;;8.10;96792.00;;;;8297977;28;20182;-78
2023/01/01 19:27:45;;;;;;;43.57;20.30;;;;;8.10;96793.00;;;;8298152;28;20283;-79
2023/01/01 19:32:23;;;;;;;44.13;18.10;;;;;8.10;96798.00;;;;8297851;28;20218;-78
2023/01/01 19:37:01;;;;;;;40.00;18.23;;;;;8.00;96782.00;;;;8298524;28;20273;-78
2023/01/01 19:41:37;;;;;;;46.67;19.27;;;;;7.90;96778.00;;;;8297692;28;20248;-78
2023/01/01 19:45:40;;;;;;;49.10;19.90;;;;;7.80;96777.00;;;;8298600;28;20276;-78
2023/01/01 19:49:43;;;;;;;41.63;18.93;;;;;7.70;96766.00;;;;8298195;28;20198;-78
2023/01/01 19:54:22;;;;;;;52.17;19.37;;;;;7.60;96769.00;;;;8298123;28;20505;-78
2023/01/01 19:58:58;;;;;;;113.50;41.47;;;;;7.50;96755.00;;;;8298704;28;20522;-78
2023/01/01 20:03:35;;;;;;;64.60;26.90;;;;;7.50;96751.00;;;;8297809;28;20504;-76
2023/01/01 20:07:59;;;;;;;46.70;20.30;;;;;7.50;96755.00;;;;8297732;28;20182;-76
2023/01/01 20:12:35;;;;;;;65.77;24.43;;;;;7.50;96757.00;;;;8298412;28;20209;-77
2023/01/01 20:16:38;;;;;;;66.73;25.33;;;;;7.60;96759.00;;;;8298275;28;20635;-77
2023/01/01 20:22:09;;;;;;;50.23;21.23;;;;;7.70;96766.00;;;;8302787;28;20198;-77
2023/01/01 20:25:05;;;;;;;50.07;20.90;;;;;7.70;96762.00;;;;8304013;28;20226;-76
2023/01/01 20:29:41;;;;;;;51.93;20.13;;;;;7.60;96764.00;;;;8301597;28;20255;-76
2023/01/01 20:34:15;;;;;;;49.53;19.47;;;;;7.60;96779.00;;;;8302552;28;20202;-77
2023/01/01 20:38:22;;;;;;;43.40;18.23;;;;;7.40;96774.00;;;;8303543;28;20509;-76
2023/01/01 20:42:26;;;;;;;53.30;18.60;;;;;7.30;96766.00;;;;8302678;28;20600;-76
2023/01/01 20:47:05;;;;;;;47.97;19.10;;;;;7.30;96758.00;;;;8302654;28;20218;-76
2023/01/01 20:51:10;;;;;;;47.93;19.90;;;;;7.30;96745.00;;;;8302341;28;20194;-76
2023/01/01 20:55:14;;;;;;;53.40;19.60;;;;;7.50;96761.00;;;;8302808;28;20202;-76
2023/01/01 20:59:17;;;;;;;45.60;19.77;;;;;7.60;96741.00;;;;8300835;28;20240;-77
2023/01/01 21:03:40;;;;;;;49.43;21.17;;;;;7.60;96742.00;;;;8302711;28;20296;-77
2023/01/01 21:07:43;;;;;;;53.07;22.60;;;;;7.60;96741.00;;;;8301640;28;20218;-76
2023/01/01 21:12:23;;;;;;;42.67;17.60;;;;;7.70;96754.00;;;;8302396;28;20202;-77
2023/01/01 21:16:28;;;;;;;38.53;17.60;;;;;7.70;96752.00;;;;8301115;28;20689;-76
2023/01/01 21:20:37;;;;;;;43.00;17.60;;;;;7.70;96758.00;;;;8302040;28;20198;-77
2023/01/01 21:24:40;;;;;;;37.13;17.17;;;;;7.60;96747.00;;;;8302275;28;20252;-78
2023/01/01 21:29:19;;;;;;;41.93;17.57;;;;;7.40;96745.00;;;;8301071;28;20198;-77